createdAt,value
2023-02-11T00:00:42.993Z,76.10
2023-02-11T00:03:11.129Z,76.30
2023-02-11T00:05:40.618Z,76.20
2023-02-11T00:08:08.693Z,76.10
2023-02-11T00:10:36.767Z,76.20
2023-02-11T00:13:04.840Z,76.30
2023-02-11T00:15:32.931Z,76.40
2023-02-11T00:18:01.009Z,76.40
2023-02-11T00:20:29.071Z,76.30
2023-02-11T00:22:58.631Z,76.40
2023-02-11T00:25:26.715Z,76.40
2023-02-11T00:27:54.818Z,76.30
2023-02-11T00:30:28.429Z,76.40
2023-02-11T00:32:56.605Z,76.40
2023-02-11T00:35:24.796Z,76.60
2023-02-11T00:37:54.473Z,76.60
2023-02-11T00:40:35.719Z,76.80
2023-02-11T00:43:03.818Z,76.80
2023-02-11T00:45:31.917Z,76.80
2023-02-11T00:48:00.000Z,76.70
2023-02-11T00:50:28.099Z,76.80
2023-02-11T00:52:56.184Z,76.80
2023-02-11T00:55:24.434Z,76.80
2023-02-11T00:57:53.930Z,76.80
2023-02-11T01:00:22.297Z,76.90
2023-02-11T01:02:50.373Z,77.00
2023-02-11T01:05:18.627Z,77.00
2023-02-11T01:07:52.383Z,76.90
2023-02-11T01:10:20.579Z,76.90
2023-02-11T01:12:48.670Z,77.00
2023-02-11T01:15:18.987Z,76.90
2023-02-11T01:17:47.078Z,76.90
2023-02-11T01:20:16.687Z,76.80
2023-02-11T01:22:44.755Z,77.00
2023-02-11T01:25:16.450Z,77.20
2023-02-11T01:27:44.552Z,77.20
2023-02-11T01:30:14.258Z,77.00
2023-02-11T01:32:43.718Z,77.20
2023-02-11T01:35:11.773Z,77.20
2023-02-11T01:37:39.833Z,77.20
2023-02-11T01:40:09.946Z,77.20
2023-02-11T01:42:38.021Z,77.30
2023-02-11T01:45:39.357Z,77.30
2023-02-11T01:48:08.991Z,77.20
2023-02-11T01:50:37.065Z,77.30
2023-02-11T01:53:19.046Z,77.30
2023-02-11T01:56:04.239Z,77.30
2023-02-11T01:58:32.314Z,77.30
2023-02-11T02:01:00.409Z,77.20
2023-02-11T02:03:29.864Z,77.30
2023-02-11T02:05:59.996Z,77.30
2023-02-11T02:08:32.151Z,77.20
2023-02-11T02:11:01.065Z,77.20
2023-02-11T02:13:29.573Z,77.30
2023-02-11T02:15:58.393Z,77.30
2023-02-11T02:18:35.457Z,77.40
2023-02-11T02:21:48.423Z,77.40
2023-02-11T02:24:51.245Z,77.40
2023-02-11T02:27:27.309Z,77.30
2023-02-11T02:30:15.871Z,77.40
2023-02-11T02:33:22.426Z,77.40
2023-02-11T02:35:55.266Z,77.30
2023-02-11T02:38:26.115Z,77.40
2023-02-11T02:40:56.888Z,77.40
2023-02-11T02:43:25.172Z,77.30
2023-02-11T02:45:53.231Z,77.30
2023-02-11T02:48:27.602Z,77.40
2023-02-11T02:51:07.991Z,77.50
2023-02-11T02:53:43.334Z,77.60
2023-02-11T02:56:12.572Z,77.60
2023-02-11T02:58:59.526Z,77.40
2023-02-11T03:01:33.252Z,77.50
2023-02-11T03:04:07.146Z,77.60
2023-02-11T03:06:38.329Z,77.60
2023-02-11T03:09:11.140Z,77.60
2023-02-11T03:11:39.551Z,77.70
2023-02-11T03:14:09.620Z,77.60
2023-02-11T03:16:39.363Z,77.60
2023-02-11T03:19:12.202Z,77.60
2023-02-11T03:21:40.401Z,77.60
2023-02-11T03:24:09.717Z,77.80
2023-02-11T03:26:39.312Z,77.70
2023-02-11T03:29:10.844Z,77.80
2023-02-11T03:31:43.105Z,77.70
2023-02-11T03:34:14.577Z,77.70
2023-02-11T03:36:46.058Z,77.80
2023-02-11T03:39:14.713Z,77.80
2023-02-11T03:41:42.801Z,77.70
2023-02-11T03:44:10.859Z,77.80
2023-02-11T03:46:39.687Z,77.90
2023-02-11T03:49:10.139Z,77.90
2023-02-11T03:51:39.561Z,77.80
2023-02-11T03:54:10.372Z,77.80
2023-02-11T03:56:46.019Z,77.90
2023-02-11T03:59:14.082Z,78.00
2023-02-11T04:01:42.133Z,77.90
2023-02-11T04:04:10.226Z,77.90
2023-02-11T04:06:39.731Z,78.00
2023-02-11T04:09:07.853Z,77.90
2023-02-11T04:11:35.942Z,78.10
2023-02-11T04:14:04.046Z,78.00
2023-02-11T04:16:32.142Z,78.10
2023-02-11T04:19:01.642Z,78.10
2023-02-11T04:21:29.751Z,78.20
2023-02-11T04:23:59.188Z,78.10
2023-02-11T04:26:27.308Z,78.10
2023-02-11T04:28:55.382Z,78.20
2023-02-11T04:31:28.659Z,78.20
2023-02-11T04:33:57.314Z,78.20
2023-02-11T04:36:25.472Z,78.30
2023-02-11T04:38:53.556Z,78.30
2023-02-11T04:41:23.034Z,78.30
2023-02-11T04:43:51.102Z,78.20
2023-02-11T04:46:19.244Z,78.30
2023-02-11T04:48:47.339Z,78.30
2023-02-11T04:51:15.454Z,78.30
2023-02-11T04:53:43.526Z,78.30
2023-02-11T04:56:11.618Z,78.30
2023-02-11T04:58:41.071Z,78.30
2023-02-11T05:01:09.234Z,78.20
2023-02-11T05:03:37.354Z,78.30
2023-02-11T05:06:06.146Z,78.30
2023-02-11T05:08:34.357Z,78.50
2023-02-11T05:11:03.123Z,78.40
2023-02-11T05:13:31.200Z,78.50
2023-02-11T05:16:00.747Z,78.50
2023-02-11T05:18:28.882Z,78.50
2023-02-11T05:20:56.996Z,78.50
2023-02-11T05:23:25.139Z,78.50
2023-02-11T05:25:53.252Z,78.70
2023-02-11T05:28:21.390Z,78.50
2023-02-11T05:30:49.544Z,78.70
2023-02-11T05:33:18.994Z,78.60
2023-02-11T05:35:47.142Z,78.70
2023-02-11T05:38:15.217Z,78.70
2023-02-11T05:40:43.329Z,78.70
2023-02-11T05:43:11.403Z,78.70
2023-02-11T05:45:39.519Z,78.70
2023-02-11T05:48:07.593Z,78.80
2023-02-11T05:50:37.074Z,78.80
2023-02-11T05:53:05.711Z,78.80
2023-02-11T05:55:33.948Z,78.70
2023-02-11T05:58:02.098Z,78.80
2023-02-11T06:00:30.197Z,78.80
2023-02-11T06:02:58.729Z,78.90
2023-02-11T06:05:26.915Z,78.90
2023-02-11T06:07:56.342Z,78.90
2023-02-11T06:10:24.435Z,78.90
2023-02-11T06:12:52.503Z,78.90
2023-02-11T06:15:20.812Z,78.90
2023-02-11T06:17:48.890Z,78.80
2023-02-11T06:20:16.964Z,79.00
2023-02-11T06:22:45.071Z,79.10
2023-02-11T06:25:15.024Z,79.10
2023-02-11T06:27:43.156Z,79.00
2023-02-11T06:30:12.420Z,79.10
2023-02-11T06:32:45.525Z,79.20
2023-02-11T06:35:14.107Z,79.10
2023-02-11T06:37:42.309Z,79.20
2023-02-11T06:40:10.605Z,79.10
2023-02-11T06:42:40.177Z,79.20
2023-02-11T06:45:09.614Z,79.10
2023-02-11T06:47:37.770Z,79.10
2023-02-11T06:50:06.297Z,79.10
2023-02-11T06:52:34.379Z,79.20
2023-02-11T06:55:02.634Z,79.20
2023-02-11T06:57:31.522Z,79.30
2023-02-11T07:00:00.981Z,79.10
2023-02-11T07:02:29.111Z,79.30
2023-02-11T07:04:57.199Z,79.30
2023-02-11T07:07:25.318Z,79.40
2023-02-11T07:09:58.675Z,79.40
2023-02-11T07:12:26.738Z,79.40
2023-02-11T07:14:54.852Z,79.30
2023-02-11T07:17:24.307Z,79.40
2023-02-11T07:19:52.378Z,79.40
2023-02-11T07:22:20.453Z,79.30
2023-02-11T07:24:48.503Z,79.40
2023-02-11T07:27:16.595Z,79.40
2023-02-11T07:29:46.101Z,79.40
2023-02-11T07:32:16.846Z,79.40
2023-02-11T07:34:48.147Z,79.40
2023-02-11T07:37:16.311Z,79.60
2023-02-11T07:39:44.457Z,79.50
2023-02-11T07:42:12.584Z,79.50
2023-02-11T07:44:43.557Z,79.50
2023-02-11T07:47:11.623Z,79.60
2023-02-11T07:49:39.684Z,79.70
2023-02-11T07:52:09.138Z,79.60
2023-02-11T07:54:37.516Z,79.70
2023-02-11T07:57:05.657Z,79.80
2023-02-11T07:59:33.889Z,79.80
2023-02-11T08:02:02.145Z,79.80
2023-02-11T08:04:34.746Z,79.70
2023-02-11T08:07:02.827Z,79.80
2023-02-11T08:09:34.434Z,79.80
2023-02-11T08:12:03.046Z,79.80
2023-02-11T08:14:32.829Z,79.80
2023-02-11T08:17:00.935Z,79.90
2023-02-11T08:19:29.024Z,79.90
2023-02-11T08:21:57.111Z,79.90
2023-02-11T08:24:25.202Z,79.90
2023-02-11T08:26:54.626Z,79.90
2023-02-11T08:29:22.681Z,80.00
2023-02-11T08:31:50.834Z,79.80
2023-02-11T08:34:19.579Z,79.90
2023-02-11T08:36:48.082Z,79.80
2023-02-11T08:39:20.264Z,80.10
2023-02-11T08:41:49.579Z,80.00
2023-02-11T08:44:19.064Z,80.00
2023-02-11T08:46:52.944Z,80.10
2023-02-11T08:49:21.179Z,80.10
2023-02-11T08:51:49.372Z,80.10
2023-02-11T08:54:17.466Z,80.10
2023-02-11T08:56:46.424Z,80.10
2023-02-11T08:59:14.720Z,80.10
2023-02-11T09:01:44.865Z,80.00
2023-02-11T09:04:13.116Z,80.00
2023-02-11T09:06:46.774Z,80.10
2023-02-11T09:09:15.632Z,80.10
2023-02-11T09:11:44.099Z,80.20
2023-02-11T09:14:16.698Z,80.30
2023-02-11T09:16:46.245Z,80.20
2023-02-11T09:19:14.481Z,80.10
2023-02-11T09:21:42.605Z,80.20
2023-02-11T09:24:11.022Z,80.20
2023-02-11T09:26:39.587Z,80.30
2023-02-11T09:29:07.812Z,80.40
2023-02-11T09:31:36.017Z,80.30
2023-02-11T09:34:07.009Z,80.30
2023-02-11T09:36:37.429Z,80.40
2023-02-11T09:39:06.432Z,80.50
2023-02-11T09:41:43.389Z,80.50
2023-02-11T09:44:18.592Z,80.50
2023-02-11T09:46:55.685Z,80.50
2023-02-11T09:49:28.360Z,80.40
2023-02-11T09:51:58.971Z,80.40
2023-02-11T09:54:29.968Z,80.50
2023-02-11T09:56:58.149Z,80.50
2023-02-11T09:59:26.260Z,80.40
2023-02-11T10:02:00.238Z,80.50
2023-02-11T10:04:49.814Z,80.40
2023-02-11T10:07:20.523Z,80.40
2023-02-11T10:09:55.308Z,80.50
2023-02-11T10:12:33.929Z,80.60
2023-02-11T10:15:10.095Z,80.60
2023-02-11T10:17:40.721Z,80.50
2023-02-11T10:20:21.922Z,80.60
2023-02-11T10:22:51.601Z,80.60
2023-02-11T10:25:22.722Z,80.60
2023-02-11T10:27:50.934Z,80.50
2023-02-11T10:30:25.618Z,80.50
2023-02-11T10:32:55.818Z,80.60
2023-02-11T10:35:26.462Z,80.60
2023-02-11T10:37:55.230Z,80.60
2023-02-11T10:40:24.528Z,80.70
2023-02-11T10:42:55.600Z,80.80
2023-02-11T10:45:29.509Z,80.70
2023-02-11T10:47:58.998Z,80.90
2023-02-11T10:50:29.201Z,80.80
2023-02-11T10:53:13.527Z,80.80
2023-02-11T10:55:42.445Z,80.90
2023-02-11T10:58:24.398Z,80.90
2023-02-11T11:00:53.883Z,80.80
2023-02-11T11:03:22.789Z,80.70
2023-02-11T11:05:52.826Z,80.90
2023-02-11T11:08:20.988Z,81.00
2023-02-11T11:10:49.773Z,81.00
2023-02-11T11:13:28.685Z,81.00
2023-02-11T11:16:20.314Z,81.00
2023-02-11T11:18:49.292Z,81.00
2023-02-11T11:21:20.807Z,81.20
2023-02-11T11:23:53.805Z,81.20
2023-02-11T11:26:21.936Z,81.20
2023-02-11T11:29:01.017Z,81.20
2023-02-11T11:31:31.462Z,81.20
2023-02-11T11:34:00.411Z,81.30
2023-02-11T11:36:35.618Z,81.30
2023-02-11T11:39:04.583Z,81.30
2023-02-11T11:41:33.872Z,81.30
2023-02-11T11:44:04.344Z,81.50
2023-02-11T11:46:35.212Z,81.50
2023-02-11T11:49:13.997Z,81.50
2023-02-11T11:51:43.944Z,81.60
2023-02-11T11:54:13.851Z,81.50
2023-02-11T11:56:46.143Z,81.50
2023-02-11T11:59:16.694Z,81.50
2023-02-11T12:01:54.171Z,81.50
2023-02-11T12:04:39.033Z,81.60
2023-02-11T12:07:15.368Z,81.60
2023-02-11T12:09:49.341Z,81.60
2023-02-11T12:12:32.249Z,81.60
2023-02-11T12:15:06.677Z,81.60
2023-02-11T12:17:43.080Z,81.60
2023-02-11T12:20:20.749Z,81.70
2023-02-11T12:22:56.732Z,81.70
2023-02-11T12:25:28.037Z,81.70
2023-02-11T12:28:04.322Z,81.70
2023-02-11T12:30:55.536Z,81.70
2023-02-11T12:33:31.973Z,81.60
2023-02-11T12:36:01.227Z,81.90
2023-02-11T12:38:48.017Z,82.10
2023-02-11T12:41:43.971Z,82.20
2023-02-11T12:44:15.324Z,82.30
2023-02-11T12:46:44.058Z,82.20
2023-02-11T12:49:39.492Z,82.30
2023-02-11T12:52:18.939Z,82.20
2023-02-11T12:54:49.975Z,82.10
2023-02-11T12:57:19.674Z,82.20
2023-02-11T12:59:55.357Z,82.40
2023-02-11T13:02:28.447Z,82.30
2023-02-11T13:04:57.907Z,82.40
2023-02-11T13:07:29.253Z,82.40
2023-02-11T13:10:00.410Z,82.20
2023-02-11T13:12:46.114Z,82.20
2023-02-11T13:15:15.856Z,82.30
2023-02-11T13:17:48.341Z,82.30
2023-02-11T13:20:22.562Z,82.30
2023-02-11T13:22:57.347Z,82.20
2023-02-11T13:25:30.328Z,82.40
2023-02-11T13:28:00.312Z,82.20
2023-02-11T13:30:32.506Z,82.20
2023-02-11T13:33:20.649Z,82.20
2023-02-11T13:35:51.250Z,82.30
2023-02-11T13:38:21.156Z,82.30
2023-02-11T13:41:02.607Z,82.30
2023-02-11T13:43:30.698Z,82.30
2023-02-11T13:45:59.772Z,82.30
2023-02-11T13:48:30.518Z,82.40
2023-02-11T13:51:00.120Z,82.40
2023-02-11T13:53:28.596Z,82.60
2023-02-11T13:56:07.869Z,82.50
2023-02-11T13:58:39.931Z,82.50
2023-02-11T14:01:08.293Z,82.60
2023-02-11T14:03:55.840Z,82.50
2023-02-11T14:06:43.551Z,82.60
2023-02-11T14:09:48.102Z,82.50
2023-02-11T14:12:41.556Z,82.70
2023-02-11T14:15:27.935Z,82.50
2023-02-11T14:17:59.095Z,82.70
2023-02-11T14:20:42.211Z,82.70
2023-02-11T14:23:23.070Z,82.70
2023-02-11T14:26:12.677Z,82.60
2023-02-11T14:28:44.822Z,82.50
2023-02-11T14:31:13.554Z,82.50
2023-02-11T14:34:06.318Z,82.60
2023-02-11T14:36:55.514Z,82.60
2023-02-11T14:39:45.289Z,82.60
2023-02-11T14:42:17.358Z,82.60
2023-02-11T14:44:46.775Z,82.60
2023-02-11T14:47:15.131Z,82.70
2023-02-11T14:49:43.224Z,82.70
2023-02-11T14:52:17.725Z,82.70
2023-02-11T14:54:45.866Z,82.70
2023-02-11T14:57:15.238Z,82.70
2023-02-11T14:59:56.091Z,82.80
2023-02-11T15:02:26.279Z,82.80
2023-02-11T15:04:55.235Z,82.60
2023-02-11T15:07:23.337Z,82.80
2023-02-11T15:09:52.499Z,82.80
2023-02-11T15:12:23.754Z,82.80
2023-02-11T15:14:55.195Z,82.90
2023-02-11T15:17:24.795Z,82.90
2023-02-11T15:19:53.818Z,82.90
2023-02-11T15:22:24.516Z,82.70
2023-02-11T15:25:02.309Z,82.90
2023-02-11T15:27:37.117Z,83.00
2023-02-11T15:30:24.596Z,83.00
2023-02-11T15:32:58.046Z,82.90
2023-02-11T15:35:28.640Z,82.90
2023-02-11T15:37:57.790Z,82.90
2023-02-11T15:40:32.376Z,82.70
2023-02-11T15:43:02.722Z,82.90
2023-02-11T15:45:32.688Z,82.90
2023-02-11T15:48:03.601Z,82.80
2023-02-11T15:50:32.369Z,82.70
2023-02-11T15:53:02.160Z,82.70
2023-02-11T15:55:30.248Z,82.90
2023-02-11T15:57:59.066Z,82.70
2023-02-11T16:00:38.588Z,82.80
2023-02-11T16:03:07.781Z,82.80
2023-02-11T16:05:36.931Z,82.80
2023-02-11T16:08:14.842Z,82.80
2023-02-11T16:10:42.895Z,82.80
2023-02-11T16:13:20.575Z,82.80
2023-02-11T16:15:55.691Z,82.80
2023-02-11T16:18:38.449Z,82.90
2023-02-11T16:21:07.719Z,82.80
2023-02-11T16:23:36.846Z,82.80
2023-02-11T16:26:08.842Z,82.80
2023-02-11T16:28:37.764Z,82.80
2023-02-11T16:31:07.510Z,82.80
2023-02-11T16:33:35.724Z,82.70
2023-02-11T16:36:07.665Z,82.80
2023-02-11T16:38:35.712Z,82.80
2023-02-11T16:41:03.781Z,82.70
2023-02-11T16:43:31.853Z,82.70
2023-02-11T16:45:59.947Z,82.80
2023-02-11T16:48:29.424Z,82.70
2023-02-11T16:50:57.810Z,82.90
2023-02-11T16:53:26.167Z,82.70
2023-02-11T16:55:54.431Z,82.70
2023-02-11T16:58:22.493Z,82.70
2023-02-11T17:00:51.514Z,82.80
2023-02-11T17:03:28.808Z,82.70
2023-02-11T17:05:59.562Z,82.80
2023-02-11T17:08:27.852Z,82.80
2023-02-11T17:10:56.079Z,82.80
2023-02-11T17:13:24.138Z,82.80
2023-02-11T17:15:52.526Z,82.80
2023-02-11T17:18:20.794Z,82.80
2023-02-11T17:20:48.861Z,82.80
2023-02-11T17:23:18.594Z,82.80
2023-02-11T17:25:46.659Z,82.80
2023-02-11T17:28:14.812Z,82.90
2023-02-11T17:30:44.190Z,82.70
2023-02-11T17:33:12.359Z,82.80
2023-02-11T17:35:41.605Z,82.70
2023-02-11T17:38:09.685Z,82.80
2023-02-11T17:40:39.150Z,82.80
2023-02-11T17:43:07.235Z,82.70
2023-02-11T17:45:36.016Z,82.80
2023-02-11T17:48:04.287Z,82.70
2023-02-11T17:50:32.368Z,82.80
2023-02-11T17:53:00.881Z,82.70
2023-02-11T17:55:28.991Z,82.80
2023-02-11T17:57:58.430Z,82.80
2023-02-11T18:00:28.301Z,82.80
2023-02-11T18:02:57.808Z,82.80
2023-02-11T18:05:28.484Z,82.80
2023-02-11T18:07:56.547Z,82.90
2023-02-11T18:10:24.715Z,82.80
2023-02-11T18:12:52.831Z,82.90
2023-02-11T18:15:22.276Z,82.80
2023-02-11T18:17:50.335Z,82.80
2023-02-11T18:20:18.559Z,82.90
2023-02-11T18:22:46.612Z,82.90
2023-02-11T18:25:15.731Z,82.90
2023-02-11T18:27:43.782Z,82.80
2023-02-11T18:30:17.658Z,82.90
2023-02-11T18:32:47.131Z,82.70
2023-02-11T18:35:17.396Z,82.90
2023-02-11T18:37:45.504Z,82.90
2023-02-11T18:40:14.102Z,82.90
2023-02-11T18:42:42.856Z,83.00
2023-02-11T18:45:12.472Z,82.90
2023-02-11T18:47:40.875Z,83.00
2023-02-11T18:50:13.822Z,82.90
2023-02-11T18:52:42.037Z,83.00
2023-02-11T18:55:10.406Z,82.90
2023-02-11T18:57:38.470Z,82.90
2023-02-11T19:00:07.559Z,83.00
2023-02-11T19:02:36.776Z,82.90
2023-02-11T19:05:05.926Z,82.90
2023-02-11T19:07:35.364Z,83.00
2023-02-11T19:10:03.463Z,82.90
2023-02-11T19:12:33.162Z,82.90
2023-02-11T19:15:01.603Z,82.90
2023-02-11T19:17:29.663Z,82.90
2023-02-11T19:19:57.721Z,82.90
2023-02-11T19:22:25.844Z,82.90
2023-02-11T19:24:55.285Z,82.90
2023-02-11T19:27:23.420Z,82.90
2023-02-11T19:29:51.520Z,82.90
2023-02-11T19:32:19.606Z,83.00
2023-02-11T19:34:47.680Z,82.90
2023-02-11T19:37:15.747Z,83.00
2023-02-11T19:39:43.907Z,83.00
2023-02-11T19:42:13.500Z,82.90
2023-02-11T19:44:41.569Z,82.90
2023-02-11T19:47:10.375Z,82.90
2023-02-11T19:49:38.455Z,83.00
2023-02-11T19:52:06.672Z,82.90
2023-02-11T19:54:34.722Z,82.90
2023-02-11T19:57:02.791Z,83.00
2023-02-11T19:59:32.254Z,82.90
2023-02-11T20:02:01.610Z,82.90
2023-02-11T20:04:32.151Z,83.00
2023-02-11T20:07:00.295Z,83.00
2023-02-11T20:09:29.087Z,83.00
2023-02-11T20:11:57.271Z,83.20
2023-02-11T20:14:27.839Z,83.20
2023-02-11T20:16:57.523Z,83.00
2023-02-11T20:19:25.568Z,83.00
2023-02-11T20:21:55.855Z,83.00
2023-02-11T20:24:24.344Z,83.00
2023-02-11T20:26:55.774Z,83.00
2023-02-11T20:29:24.250Z,83.20
2023-02-11T20:31:52.401Z,83.20
2023-02-11T20:34:22.302Z,83.20
2023-02-11T20:36:52.897Z,83.20
2023-02-11T20:39:22.318Z,83.30
2023-02-11T20:41:50.701Z,83.30
2023-02-11T20:44:19.409Z,83.30
2023-02-11T20:46:47.590Z,83.30
2023-02-11T20:49:21.484Z,83.30
2023-02-11T20:51:49.563Z,83.20
2023-02-11T20:54:18.509Z,83.20
2023-02-11T20:56:48.122Z,83.20
2023-02-11T20:59:16.777Z,83.30
2023-02-11T21:01:45.861Z,83.30
2023-02-11T21:04:15.514Z,83.40
2023-02-11T21:06:50.026Z,83.50
2023-02-11T21:09:19.822Z,83.40
2023-02-11T21:11:47.966Z,83.40
2023-02-11T21:14:16.401Z,83.40
2023-02-11T21:16:44.502Z,83.50
2023-02-11T21:19:12.622Z,83.40
2023-02-11T21:21:41.439Z,83.50
2023-02-11T21:24:11.274Z,83.50
2023-02-11T21:26:39.409Z,83.60
2023-02-11T21:29:08.289Z,83.50
2023-02-11T21:31:36.725Z,83.50
2023-02-11T21:34:04.989Z,83.60
2023-02-11T21:36:33.070Z,83.60
2023-02-11T21:39:01.924Z,83.50
2023-02-11T21:41:31.556Z,83.50
2023-02-11T21:43:59.662Z,83.60
2023-02-11T21:46:27.793Z,83.70
2023-02-11T21:48:55.898Z,83.50
2023-02-11T21:51:24.809Z,83.60
2023-02-11T21:53:54.765Z,83.60
2023-02-11T21:56:22.870Z,83.60
2023-02-11T21:58:54.292Z,83.70
2023-02-11T22:01:23.344Z,83.60
2023-02-11T22:03:51.430Z,83.50
2023-02-11T22:06:22.363Z,83.60
2023-02-11T22:08:50.475Z,83.60
2023-02-11T22:11:18.596Z,83.60
2023-02-11T22:13:47.422Z,83.60
2023-02-11T22:16:17.941Z,83.70
2023-02-11T22:18:46.546Z,83.60
2023-02-11T22:21:18.948Z,83.70
2023-02-11T22:23:47.186Z,83.80
2023-02-11T22:26:16.198Z,83.80
2023-02-11T22:28:44.303Z,83.80
2023-02-11T22:31:19.964Z,83.80
2023-02-11T22:33:48.172Z,83.80
2023-02-11T22:36:17.589Z,83.90
2023-02-11T22:38:45.690Z,83.90
2023-02-11T22:41:13.818Z,83.90
2023-02-11T22:43:42.764Z,83.80
2023-02-11T22:46:12.044Z,83.80
2023-02-11T22:48:41.577Z,83.80
2023-02-11T22:51:10.345Z,83.80
2023-02-11T22:53:38.481Z,83.70
2023-02-11T22:56:07.218Z,83.80
2023-02-11T22:58:35.499Z,83.80
2023-02-11T23:01:03.601Z,83.80
2023-02-11T23:03:31.855Z,83.80
2023-02-11T23:06:01.416Z,83.80
2023-02-11T23:08:29.882Z,83.80
2023-02-11T23:10:58.059Z,83.80
2023-02-11T23:13:26.171Z,83.90
2023-02-11T23:15:54.570Z,83.80
2023-02-11T23:18:22.863Z,83.80
2023-02-11T23:20:50.956Z,83.90
2023-02-11T23:23:20.456Z,83.70
2023-02-11T23:25:48.585Z,83.90
2023-02-11T23:28:16.671Z,83.90
2023-02-11T23:30:44.783Z,83.90
2023-02-11T23:33:12.870Z,83.80
2023-02-11T23:35:40.943Z,83.80
2023-02-11T23:38:09.056Z,83.80
2023-02-11T23:40:38.524Z,83.80
2023-02-11T23:43:06.650Z,83.70
2023-02-11T23:45:34.766Z,83.80
2023-02-11T23:48:02.868Z,83.80
2023-02-11T23:50:30.949Z,83.80
2023-02-11T23:52:58.997Z,83.80
2023-02-11T23:55:27.066Z,83.90
2023-02-11T23:57:56.504Z,83.80
